sensor_id;sensor_type;location;lat;lon;timestamp;P1;durP1;ratioP1;P2;durP2;ratioP2
65469;SDS011;52067;50.710;14.492;2024-01-06T00:00:56;93.82;;;32.58;;
65469;SDS011;52067;50.710;14.492;2024-01-06T00:03:22;112.88;;;35.63;;
65469;SDS011;52067;50.710;14.492;2024-01-06T00:05:47;101.30;;;33.50;;
65469;SDS011;52067;50.710;14.492;2024-01-06T00:08:12;96.38;;;34.10;;
65469;SDS011;52067;50.710;14.492;2024-01-06T00:10:38;103.10;;;34.38;;
65469;SDS011;52067;50.710;14.492;2024-01-06T00:13:03;89.85;;;33.80;;
65469;SDS011;52067;50.710;14.492;2024-01-06T00:15:28;99.43;;;35.00;;
65469;SDS011;52067;50.710;14.492;2024-01-06T00:17:54;89.57;;;32.25;;
65469;SDS011;52067;50.710;14.492;2024-01-06T00:20:19;100.45;;;34.25;;
65469;SDS011;52067;50.710;14.492;2024-01-06T00:22:44;88.97;;;31.90;;
65469;SDS011;52067;50.710;14.492;2024-01-06T00:25:10;89.18;;;32.83;;
65469;SDS011;52067;50.710;14.492;2024-01-06T00:27:35;89.93;;;33.25;;
65469;SDS011;52067;50.710;14.492;2024-01-06T00:30:01;89.60;;;31.90;;
65469;SDS011;52067;50.710;14.492;2024-01-06T00:32:26;92.00;;;30.75;;
65469;SDS011;52067;50.710;14.492;2024-01-06T00:34:51;88.95;;;31.58;;
65469;SDS011;52067;50.710;14.492;2024-01-06T00:37:17;87.88;;;32.92;;
65469;SDS011;52067;50.710;14.492;2024-01-06T00:39:42;95.75;;;34.45;;
65469;SDS011;52067;50.710;14.492;2024-01-06T00:42:08;69.55;;;28.00;;
65469;SDS011;52067;50.710;14.492;2024-01-06T00:44:35;82.38;;;30.35;;
65469;SDS011;52067;50.710;14.492;2024-01-06T00:47:01;90.03;;;32.15;;
65469;SDS011;52067;50.710;14.492;2024-01-06T00:49:26;91.20;;;34.13;;
65469;SDS011;52067;50.710;14.492;2024-01-06T00:51:52;65.88;;;25.40;;
65469;SDS011;52067;50.710;14.492;2024-01-06T00:54:17;57.00;;;22.40;;
65469;SDS011;52067;50.710;14.492;2024-01-06T00:56:43;63.63;;;23.90;;
65469;SDS011;52067;50.710;14.492;2024-01-06T00:59:08;53.92;;;23.45;;
65469;SDS011;52067;50.710;14.492;2024-01-06T01:01:34;50.75;;;22.02;;
65469;SDS011;52067;50.710;14.492;2024-01-06T01:03:59;46.38;;;18.73;;
65469;SDS011;52067;50.710;14.492;2024-01-06T01:06:25;37.40;;;17.60;;
65469;SDS011;52067;50.710;14.492;2024-01-06T01:08:50;48.10;;;20.42;;
65469;SDS011;52067;50.710;14.492;2024-01-06T01:11:15;66.30;;;27.17;;
65469;SDS011;52067;50.710;14.492;2024-01-06T01:13:41;64.05;;;25.98;;
65469;SDS011;52067;50.710;14.492;2024-01-06T01:16:06;56.78;;;20.08;;
65469;SDS011;52067;50.710;14.492;2024-01-06T01:18:32;45.40;;;19.08;;
65469;SDS011;52067;50.710;14.492;2024-01-06T01:20:57;45.63;;;19.40;;
65469;SDS011;52067;50.710;14.492;2024-01-06T01:23:22;67.30;;;25.00;;
65469;SDS011;52067;50.710;14.492;2024-01-06T01:25:48;63.85;;;24.42;;
65469;SDS011;52067;50.710;14.492;2024-01-06T01:28:14;54.28;;;22.60;;
65469;SDS011;52067;50.710;14.492;2024-01-06T01:30:39;46.42;;;21.15;;
65469;SDS011;52067;50.710;14.492;2024-01-06T01:33:05;45.30;;;21.48;;
65469;SDS011;52067;50.710;14.492;2024-01-06T01:35:30;59.00;;;23.65;;
65469;SDS011;52067;50.710;14.492;2024-01-06T01:37:55;46.25;;;22.85;;
65469;SDS011;52067;50.710;14.492;2024-01-06T01:40:21;48.50;;;21.70;;
65469;SDS011;52067;50.710;14.492;2024-01-06T01:42:46;54.90;;;21.55;;
65469;SDS011;52067;50.710;14.492;2024-01-06T01:45:12;49.08;;;20.77;;
65469;SDS011;52067;50.710;14.492;2024-01-06T01:47:37;53.67;;;21.70;;
65469;SDS011;52067;50.710;14.492;2024-01-06T01:50:04;54.17;;;22.10;;
65469;SDS011;52067;50.710;14.492;2024-01-06T01:52:30;44.00;;;20.38;;
65469;SDS011;52067;50.710;14.492;2024-01-06T01:54:56;51.72;;;20.05;;
65469;SDS011;52067;50.710;14.492;2024-01-06T01:57:23;49.47;;;21.05;;
65469;SDS011;52067;50.710;14.492;2024-01-06T01:59:50;54.60;;;21.02;;
65469;SDS011;52067;50.710;14.492;2024-01-06T02:02:16;54.42;;;20.83;;
65469;SDS011;52067;50.710;14.492;2024-01-06T02:04:42;45.70;;;19.38;;
65469;SDS011;52067;50.710;14.492;2024-01-06T02:07:07;45.72;;;19.40;;
65469;SDS011;52067;50.710;14.492;2024-01-06T02:09:32;46.53;;;20.35;;
65469;SDS011;52067;50.710;14.492;2024-01-06T02:11:58;53.20;;;20.65;;
65469;SDS011;52067;50.710;14.492;2024-01-06T02:14:23;46.17;;;20.73;;
65469;SDS011;52067;50.710;14.492;2024-01-06T02:16:49;46.80;;;19.80;;
65469;SDS011;52067;50.710;14.492;2024-01-06T02:19:16;51.58;;;19.83;;
65469;SDS011;52067;50.710;14.492;2024-01-06T02:21:43;38.00;;;16.77;;
65469;SDS011;52067;50.710;14.492;2024-01-06T02:24:09;44.35;;;17.90;;
65469;SDS011;52067;50.710;14.492;2024-01-06T02:26:35;46.90;;;18.23;;
65469;SDS011;52067;50.710;14.492;2024-01-06T02:29:01;49.80;;;18.00;;
65469;SDS011;52067;50.710;14.492;2024-01-06T02:31:26;38.53;;;17.15;;
65469;SDS011;52067;50.710;14.492;2024-01-06T02:33:52;44.35;;;18.75;;
65469;SDS011;52067;50.710;14.492;2024-01-06T02:36:18;37.00;;;17.00;;
65469;SDS011;52067;50.710;14.492;2024-01-06T02:38:43;47.17;;;18.48;;
65469;SDS011;52067;50.710;14.492;2024-01-06T02:41:09;45.17;;;19.15;;
65469;SDS011;52067;50.710;14.492;2024-01-06T02:43:34;45.47;;;20.25;;
65469;SDS011;52067;50.710;14.492;2024-01-06T02:45:59;38.40;;;18.33;;
65469;SDS011;52067;50.710;14.492;2024-01-06T02:48:25;42.30;;;17.83;;
65469;SDS011;52067;50.710;14.492;2024-01-06T02:50:50;42.83;;;16.92;;
65469;SDS011;52067;50.710;14.492;2024-01-06T02:53:16;38.72;;;17.05;;
65469;SDS011;52067;50.710;14.492;2024-01-06T02:55:41;44.17;;;17.25;;
65469;SDS011;52067;50.710;14.492;2024-01-06T02:58:06;58.42;;;23.27;;
65469;SDS011;52067;50.710;14.492;2024-01-06T03:00:32;49.45;;;19.98;;
65469;SDS011;52067;50.710;14.492;2024-01-06T03:02:57;38.00;;;18.05;;
65469;SDS011;52067;50.710;14.492;2024-01-06T03:05:23;34.50;;;17.15;;
65469;SDS011;52067;50.710;14.492;2024-01-06T03:07:48;32.35;;;15.27;;
65469;SDS011;52067;50.710;14.492;2024-01-06T03:10:14;38.83;;;16.60;;
65469;SDS011;52067;50.710;14.492;2024-01-06T03:12:39;36.28;;;16.50;;
65469;SDS011;52067;50.710;14.492;2024-01-06T03:15:05;33.33;;;15.13;;
65469;SDS011;52067;50.710;14.492;2024-01-06T03:17:30;36.22;;;14.90;;
65469;SDS011;52067;50.710;14.492;2024-01-06T03:19:56;29.75;;;13.77;;
65469;SDS011;52067;50.710;14.492;2024-01-06T03:22:22;24.58;;;12.45;;
65469;SDS011;52067;50.710;14.492;2024-01-06T03:24:47;29.08;;;13.80;;
65469;SDS011;52067;50.710;14.492;2024-01-06T03:27:13;41.15;;;16.40;;
65469;SDS011;52067;50.710;14.492;2024-01-06T03:29:39;38.83;;;16.17;;
65469;SDS011;52067;50.710;14.492;2024-01-06T03:32:04;52.38;;;23.52;;
65469;SDS011;52067;50.710;14.492;2024-01-06T03:34:30;57.22;;;21.73;;
65469;SDS011;52067;50.710;14.492;2024-01-06T03:36:55;56.53;;;22.98;;
65469;SDS011;52067;50.710;14.492;2024-01-06T03:39:21;39.28;;;18.15;;
65469;SDS011;52067;50.710;14.492;2024-01-06T03:41:47;46.30;;;17.20;;
65469;SDS011;52067;50.710;14.492;2024-01-06T03:44:13;41.35;;;18.27;;
65469;SDS011;52067;50.710;14.492;2024-01-06T03:46:38;37.00;;;16.73;;
65469;SDS011;52067;50.710;14.492;2024-01-06T03:49:04;38.22;;;17.50;;
65469;SDS011;52067;50.710;14.492;2024-01-06T03:51:29;35.35;;;16.52;;
65469;SDS011;52067;50.710;14.492;2024-01-06T03:53:55;35.97;;;18.38;;
65469;SDS011;52067;50.710;14.492;2024-01-06T03:56:20;40.30;;;18.38;;
65469;SDS011;52067;50.710;14.492;2024-01-06T03:58:46;39.92;;;18.73;;
65469;SDS011;52067;50.710;14.492;2024-01-06T04:01:11;38.83;;;17.92;;
65469;SDS011;52067;50.710;14.492;2024-01-06T04:03:38;40.65;;;17.17;;
65469;SDS011;52067;50.710;14.492;2024-01-06T04:06:05;35.92;;;15.25;;
65469;SDS011;52067;50.710;14.492;2024-01-06T04:08:31;36.90;;;15.20;;
65469;SDS011;52067;50.710;14.492;2024-01-06T04:10:56;33.05;;;15.48;;
65469;SDS011;52067;50.710;14.492;2024-01-06T04:13:22;34.58;;;16.02;;
65469;SDS011;52067;50.710;14.492;2024-01-06T04:15:47;36.08;;;17.02;;
65469;SDS011;52067;50.710;14.492;2024-01-06T04:18:12;30.80;;;14.77;;
65469;SDS011;52067;50.710;14.492;2024-01-06T04:20:38;42.63;;;16.50;;
65469;SDS011;52067;50.710;14.492;2024-01-06T04:23:03;46.30;;;18.83;;
65469;SDS011;52067;50.710;14.492;2024-01-06T04:25:28;33.70;;;16.38;;
65469;SDS011;52067;50.710;14.492;2024-01-06T04:27:54;39.15;;;18.27;;
65469;SDS011;52067;50.710;14.492;2024-01-06T04:30:19;40.38;;;16.83;;
65469;SDS011;52067;50.710;14.492;2024-01-06T04:32:45;39.15;;;16.95;;
65469;SDS011;52067;50.710;14.492;2024-01-06T04:35:13;42.40;;;16.88;;
65469;SDS011;52067;50.710;14.492;2024-01-06T04:37:38;41.13;;;17.60;;
65469;SDS011;52067;50.710;14.492;2024-01-06T04:40:04;43.28;;;17.77;;
65469;SDS011;52067;50.710;14.492;2024-01-06T04:42:30;42.38;;;17.85;;
65469;SDS011;52067;50.710;14.492;2024-01-06T04:44:56;52.55;;;18.95;;
65469;SDS011;52067;50.710;14.492;2024-01-06T04:47:21;58.30;;;19.92;;
65469;SDS011;52067;50.710;14.492;2024-01-06T04:49:47;65.03;;;19.80;;
65469;SDS011;52067;50.710;14.492;2024-01-06T04:52:12;58.78;;;19.33;;
65469;SDS011;52067;50.710;14.492;2024-01-06T04:54:37;54.42;;;21.00;;
65469;SDS011;52067;50.710;14.492;2024-01-06T04:57:03;54.00;;;20.35;;
65469;SDS011;52067;50.710;14.492;2024-01-06T04:59:29;44.13;;;18.83;;
65469;SDS011;52067;50.710;14.492;2024-01-06T05:01:55;39.28;;;17.73;;
65469;SDS011;52067;50.710;14.492;2024-01-06T05:04:22;46.47;;;16.58;;
65469;SDS011;52067;50.710;14.492;2024-01-06T05:06:47;38.50;;;16.45;;
65469;SDS011;52067;50.710;14.492;2024-01-06T05:09:14;44.35;;;15.68;;
65469;SDS011;52067;50.710;14.492;2024-01-06T05:11:40;35.58;;;15.52;;
65469;SDS011;52067;50.710;14.492;2024-01-06T05:14:05;31.02;;;13.30;;
65469;SDS011;52067;50.710;14.492;2024-01-06T05:16:31;30.50;;;12.45;;
65469;SDS011;52067;50.710;14.492;2024-01-06T05:18:56;27.83;;;12.00;;
65469;SDS011;52067;50.710;14.492;2024-01-06T05:21:21;28.85;;;11.95;;
65469;SDS011;52067;50.710;14.492;2024-01-06T05:23:47;23.25;;;11.02;;
65469;SDS011;52067;50.710;14.492;2024-01-06T05:26:12;26.75;;;12.00;;
65469;SDS011;52067;50.710;14.492;2024-01-06T05:28:39;26.20;;;11.70;;
65469;SDS011;52067;50.710;14.492;2024-01-06T05:31:04;31.02;;;12.07;;
65469;SDS011;52067;50.710;14.492;2024-01-06T05:33:30;29.35;;;12.65;;
65469;SDS011;52067;50.710;14.492;2024-01-06T05:35:55;31.25;;;12.68;;
65469;SDS011;52067;50.710;14.492;2024-01-06T05:38:21;32.35;;;12.23;;
65469;SDS011;52067;50.710;14.492;2024-01-06T05:40:46;27.25;;;11.13;;
65469;SDS011;52067;50.710;14.492;2024-01-06T05:43:12;27.98;;;12.18;;
65469;SDS011;52067;50.710;14.492;2024-01-06T05:45:37;31.10;;;12.55;;
65469;SDS011;52067;50.710;14.492;2024-01-06T05:48:03;26.15;;;11.85;;
65469;SDS011;52067;50.710;14.492;2024-01-06T05:50:33;30.10;;;13.70;;
65469;SDS011;52067;50.710;14.492;2024-01-06T05:52:58;37.47;;;14.30;;
65469;SDS011;52067;50.710;14.492;2024-01-06T05:55:24;43.60;;;14.23;;
65469;SDS011;52067;50.710;14.492;2024-01-06T05:57:49;47.97;;;16.95;;
65469;SDS011;52067;50.710;14.492;2024-01-06T06:00:16;52.88;;;18.67;;
65469;SDS011;52067;50.710;14.492;2024-01-06T06:02:41;46.00;;;17.30;;
65469;SDS011;52067;50.710;14.492;2024-01-06T06:05:07;45.72;;;16.70;;
65469;SDS011;52067;50.710;14.492;2024-01-06T06:07:32;48.92;;;17.00;;
65469;SDS011;52067;50.710;14.492;2024-01-06T06:10:03;47.08;;;16.33;;
65469;SDS011;52067;50.710;14.492;2024-01-06T06:12:33;60.30;;;17.55;;
65469;SDS011;52067;50.710;14.492;2024-01-06T06:14:58;39.75;;;15.32;;
65469;SDS011;52067;50.710;14.492;2024-01-06T06:17:23;56.53;;;17.15;;
65469;SDS011;52067;50.710;14.492;2024-01-06T06:19:49;52.85;;;17.75;;
65469;SDS011;52067;50.710;14.492;2024-01-06T06:22:14;51.60;;;18.17;;
65469;SDS011;52067;50.710;14.492;2024-01-06T06:24:39;55.25;;;19.75;;
65469;SDS011;52067;50.710;14.492;2024-01-06T06:27:05;56.60;;;21.42;;
65469;SDS011;52067;50.710;14.492;2024-01-06T06:29:30;48.55;;;19.40;;
65469;SDS011;52067;50.710;14.492;2024-01-06T06:31:56;48.33;;;19.35;;
65469;SDS011;52067;50.710;14.492;2024-01-06T06:34:21;50.83;;;19.73;;
65469;SDS011;52067;50.710;14.492;2024-01-06T06:36:46;49.88;;;19.90;;
65469;SDS011;52067;50.710;14.492;2024-01-06T06:39:12;57.50;;;17.58;;
65469;SDS011;52067;50.710;14.492;2024-01-06T06:41:37;118.88;;;19.42;;
65469;SDS011;52067;50.710;14.492;2024-01-06T06:44:03;58.60;;;19.25;;
65469;SDS011;52067;50.710;14.492;2024-01-06T06:46:29;63.40;;;16.92;;
65469;SDS011;52067;50.710;14.492;2024-01-06T06:48:54;44.00;;;16.65;;
65469;SDS011;52067;50.710;14.492;2024-01-06T06:51:20;37.60;;;14.43;;
65469;SDS011;52067;50.710;14.492;2024-01-06T06:53:50;46.03;;;16.45;;
65469;SDS011;52067;50.710;14.492;2024-01-06T06:56:15;40.75;;;15.57;;
65469;SDS011;52067;50.710;14.492;2024-01-06T06:58:42;53.50;;;17.25;;
65469;SDS011;52067;50.710;14.492;2024-01-06T07:01:07;47.42;;;16.77;;
65469;SDS011;52067;50.710;14.492;2024-01-06T07:03:33;42.35;;;16.23;;
65469;SDS011;52067;50.710;14.492;2024-01-06T07:05:58;39.15;;;15.95;;
65469;SDS011;52067;50.710;14.492;2024-01-06T07:08:24;34.55;;;15.27;;
65469;SDS011;52067;50.710;14.492;2024-01-06T07:10:49;43.65;;;19.45;;
65469;SDS011;52067;50.710;14.492;2024-01-06T07:13:14;41.67;;;17.95;;
65469;SDS011;52067;50.710;14.492;2024-01-06T07:15:40;40.30;;;16.73;;
65469;SDS011;52067;50.710;14.492;2024-01-06T07:18:06;45.03;;;17.75;;
65469;SDS011;52067;50.710;14.492;2024-01-06T07:20:32;42.75;;;17.00;;
65469;SDS011;52067;50.710;14.492;2024-01-06T07:22:57;50.25;;;17.30;;
65469;SDS011;52067;50.710;14.492;2024-01-06T07:25:22;39.72;;;17.05;;
65469;SDS011;52067;50.710;14.492;2024-01-06T07:27:48;38.03;;;16.90;;
65469;SDS011;52067;50.710;14.492;2024-01-06T07:30:13;57.50;;;19.20;;
65469;SDS011;52067;50.710;14.492;2024-01-06T07:32:39;76.13;;;26.10;;
65469;SDS011;52067;50.710;14.492;2024-01-06T07:35:04;66.40;;;24.88;;
65469;SDS011;52067;50.710;14.492;2024-01-06T07:37:30;71.70;;;24.35;;
65469;SDS011;52067;50.710;14.492;2024-01-06T07:39:55;65.28;;;24.30;;
65469;SDS011;52067;50.710;14.492;2024-01-06T07:42:21;58.67;;;18.80;;
65469;SDS011;52067;50.710;14.492;2024-01-06T07:44:47;60.90;;;18.77;;
65469;SDS011;52067;50.710;14.492;2024-01-06T07:47:12;60.13;;;21.25;;
65469;SDS011;52067;50.710;14.492;2024-01-06T07:49:39;63.70;;;20.60;;
65469;SDS011;52067;50.710;14.492;2024-01-06T07:52:05;53.55;;;21.02;;
65469;SDS011;52067;50.710;14.492;2024-01-06T07:54:30;76.03;;;22.63;;
65469;SDS011;52067;50.710;14.492;2024-01-06T07:56:55;66.38;;;22.38;;
65469;SDS011;52067;50.710;14.492;2024-01-06T07:59:21;130.45;;;44.40;;
65469;SDS011;52067;50.710;14.492;2024-01-06T08:01:46;103.47;;;36.88;;
65469;SDS011;52067;50.710;14.492;2024-01-06T08:04:12;81.70;;;29.90;;
65469;SDS011;52067;50.710;14.492;2024-01-06T08:06:37;64.97;;;25.90;;
65469;SDS011;52067;50.710;14.492;2024-01-06T08:09:03;78.68;;;28.27;;
65469;SDS011;52067;50.710;14.492;2024-01-06T08:11:28;75.07;;;27.40;;
65469;SDS011;52067;50.710;14.492;2024-01-06T08:13:54;73.82;;;28.35;;
65469;SDS011;52067;50.710;14.492;2024-01-06T08:16:19;62.38;;;27.30;;
65469;SDS011;52067;50.710;14.492;2024-01-06T08:18:45;64.22;;;28.02;;
65469;SDS011;52067;50.710;14.492;2024-01-06T08:21:10;110.80;;;39.45;;
65469;SDS011;52067;50.710;14.492;2024-01-06T08:23:36;69.13;;;28.83;;
65469;SDS011;52067;50.710;14.492;2024-01-06T08:26:02;73.18;;;29.80;;
65469;SDS011;52067;50.710;14.492;2024-01-06T08:28:27;75.40;;;32.60;;
65469;SDS011;52067;50.710;14.492;2024-01-06T08:30:53;89.88;;;33.45;;
65469;SDS011;52067;50.710;14.492;2024-01-06T08:33:18;115.32;;;34.75;;
65469;SDS011;52067;50.710;14.492;2024-01-06T08:35:44;106.75;;;34.95;;
65469;SDS011;52067;50.710;14.492;2024-01-06T08:38:09;92.20;;;33.60;;
65469;SDS011;52067;50.710;14.492;2024-01-06T08:40:35;119.43;;;37.35;;
65469;SDS011;52067;50.710;14.492;2024-01-06T08:43:01;138.98;;;39.75;;
65469;SDS011;52067;50.710;14.492;2024-01-06T08:45:27;134.18;;;38.80;;
65469;SDS011;52067;50.710;14.492;2024-01-06T08:47:52;159.27;;;40.88;;
65469;SDS011;52067;50.710;14.492;2024-01-06T08:50:18;134.93;;;39.83;;
65469;SDS011;52067;50.710;14.492;2024-01-06T08:52:43;123.35;;;38.53;;
65469;SDS011;52067;50.710;14.492;2024-01-06T08:55:09;131.00;;;36.85;;
65469;SDS011;52067;50.710;14.492;2024-01-06T08:57:34;108.38;;;35.03;;
65469;SDS011;52067;50.710;14.492;2024-01-06T08:59:59;118.93;;;39.15;;
65469;SDS011;52067;50.710;14.492;2024-01-06T09:02:25;143.95;;;44.95;;
65469;SDS011;52067;50.710;14.492;2024-01-06T09:04:50;126.45;;;42.42;;
65469;SDS011;52067;50.710;14.492;2024-01-06T09:07:16;128.30;;;40.22;;
65469;SDS011;52067;50.710;14.492;2024-01-06T09:09:42;118.00;;;38.22;;
65469;SDS011;52067;50.710;14.492;2024-01-06T09:12:08;97.38;;;33.70;;
65469;SDS011;52067;50.710;14.492;2024-01-06T09:14:34;82.03;;;29.70;;
65469;SDS011;52067;50.710;14.492;2024-01-06T09:16:59;69.60;;;27.33;;
65469;SDS011;52067;50.710;14.492;2024-01-06T09:19:24;85.25;;;28.30;;
65469;SDS011;52067;50.710;14.492;2024-01-06T09:21:53;87.35;;;28.65;;
65469;SDS011;52067;50.710;14.492;2024-01-06T09:24:19;90.90;;;30.77;;
65469;SDS011;52067;50.710;14.492;2024-01-06T09:26:44;85.10;;;29.50;;
65469;SDS011;52067;50.710;14.492;2024-01-06T09:29:10;83.00;;;30.48;;
65469;SDS011;52067;50.710;14.492;2024-01-06T09:31:35;75.13;;;28.13;;
65469;SDS011;52067;50.710;14.492;2024-01-06T09:34:01;79.97;;;29.20;;
65469;SDS011;52067;50.710;14.492;2024-01-06T09:36:27;78.13;;;28.88;;
65469;SDS011;52067;50.710;14.492;2024-01-06T09:38:53;88.90;;;31.75;;
65469;SDS011;52067;50.710;14.492;2024-01-06T09:41:18;70.53;;;26.42;;
65469;SDS011;52067;50.710;14.492;2024-01-06T09:43:43;73.00;;;28.75;;
65469;SDS011;52067;50.710;14.492;2024-01-06T09:46:19;63.97;;;25.17;;
65469;SDS011;52067;50.710;14.492;2024-01-06T09:48:49;63.45;;;26.63;;
65469;SDS011;52067;50.710;14.492;2024-01-06T09:51:18;69.97;;;25.15;;
65469;SDS011;52067;50.710;14.492;2024-01-06T09:53:48;68.20;;;26.75;;
65469;SDS011;52067;50.710;14.492;2024-01-06T09:56:17;60.25;;;26.33;;
65469;SDS011;52067;50.710;14.492;2024-01-06T09:58:43;68.40;;;28.77;;
65469;SDS011;52067;50.710;14.492;2024-01-06T10:01:10;64.75;;;27.52;;
65469;SDS011;52067;50.710;14.492;2024-01-06T10:03:36;60.20;;;26.73;;
65469;SDS011;52067;50.710;14.492;2024-01-06T10:06:02;55.92;;;25.55;;
65469;SDS011;52067;50.710;14.492;2024-01-06T10:08:32;54.55;;;24.48;;
65469;SDS011;52067;50.710;14.492;2024-01-06T10:10:59;46.58;;;19.92;;
65469;SDS011;52067;50.710;14.492;2024-01-06T10:13:25;38.80;;;16.67;;
65469;SDS011;52067;50.710;14.492;2024-01-06T10:15:51;38.35;;;18.10;;
65469;SDS011;52067;50.710;14.492;2024-01-06T10:18:16;29.58;;;13.52;;
65469;SDS011;52067;50.710;14.492;2024-01-06T10:20:43;28.50;;;13.80;;
65469;SDS011;52067;50.710;14.492;2024-01-06T10:23:10;28.48;;;13.82;;
65469;SDS011;52067;50.710;14.492;2024-01-06T10:25:35;33.00;;;14.90;;
65469;SDS011;52067;50.710;14.492;2024-01-06T10:28:01;26.55;;;12.30;;
65469;SDS011;52067;50.710;14.492;2024-01-06T10:30:28;24.05;;;11.52;;
65469;SDS011;52067;50.710;14.492;2024-01-06T10:32:53;24.67;;;11.80;;
65469;SDS011;52067;50.710;14.492;2024-01-06T10:35:19;23.25;;;11.40;;
65469;SDS011;52067;50.710;14.492;2024-01-06T10:37:45;28.23;;;13.27;;
65469;SDS011;52067;50.710;14.492;2024-01-06T10:42:38;32.60;;;14.68;;
65469;SDS011;52067;50.710;14.492;2024-01-06T10:45:08;26.60;;;12.80;;
65469;SDS011;52067;50.710;14.492;2024-01-06T10:47:36;30.25;;;14.32;;
65469;SDS011;52067;50.710;14.492;2024-01-06T10:50:01;34.13;;;13.63;;
65469;SDS011;52067;50.710;14.492;2024-01-06T10:52:28;32.03;;;14.27;;
65469;SDS011;52067;50.710;14.492;2024-01-06T10:54:54;29.58;;;14.07;;
65469;SDS011;52067;50.710;14.492;2024-01-06T10:57:20;36.67;;;15.93;;
65469;SDS011;52067;50.710;14.492;2024-01-06T10:59:47;30.13;;;14.13;;
65469;SDS011;52067;50.710;14.492;2024-01-06T11:02:14;34.45;;;15.07;;
65469;SDS011;52067;50.710;14.492;2024-01-06T11:04:42;30.00;;;12.98;;
65469;SDS011;52067;50.710;14.492;2024-01-06T11:07:09;29.85;;;13.48;;
65469;SDS011;52067;50.710;14.492;2024-01-06T11:09:35;30.13;;;13.63;;
65469;SDS011;52067;50.710;14.492;2024-01-06T11:12:04;32.28;;;13.98;;
65469;SDS011;52067;50.710;14.492;2024-01-06T11:14:36;31.80;;;14.32;;
65469;SDS011;52067;50.710;14.492;2024-01-06T11:17:02;32.40;;;14.93;;
65469;SDS011;52067;50.710;14.492;2024-01-06T11:25:07;27.10;;;13.02;;
65469;SDS011;52067;50.710;14.492;2024-01-06T11:27:34;28.20;;;13.48;;
65469;SDS011;52067;50.710;14.492;2024-01-06T11:30:01;30.65;;;13.88;;
65469;SDS011;52067;50.710;14.492;2024-01-06T11:32:37;27.35;;;13.05;;
65469;SDS011;52067;50.710;14.492;2024-01-06T11:37:36;27.88;;;13.40;;
65469;SDS011;52067;50.710;14.492;2024-01-06T11:43:03;30.50;;;13.63;;
65469;SDS011;52067;50.710;14.492;2024-01-06T11:45:32;30.58;;;13.98;;
65469;SDS011;52067;50.710;14.492;2024-01-06T11:48:05;24.23;;;12.60;;
65469;SDS011;52067;50.710;14.492;2024-01-06T11:50:32;27.20;;;12.82;;
65469;SDS011;52067;50.710;14.492;2024-01-06T11:52:59;27.38;;;11.75;;
65469;SDS011;52067;50.710;14.492;2024-01-06T11:55:25;26.73;;;12.73;;
65469;SDS011;52067;50.710;14.492;2024-01-06T11:57:56;23.42;;;11.52;;
65469;SDS011;52067;50.710;14.492;2024-01-06T12:00:26;25.27;;;12.45;;
65469;SDS011;52067;50.710;14.492;2024-01-06T12:03:01;24.52;;;11.98;;
65469;SDS011;52067;50.710;14.492;2024-01-06T12:05:28;22.02;;;11.95;;
65469;SDS011;52067;50.710;14.492;2024-01-06T12:07:54;25.33;;;11.73;;
65469;SDS011;52067;50.710;14.492;2024-01-06T12:10:21;25.55;;;11.35;;
65469;SDS011;52067;50.710;14.492;2024-01-06T12:15:30;26.67;;;11.70;;
65469;SDS011;52067;50.710;14.492;2024-01-06T12:17:57;27.83;;;12.48;;
65469;SDS011;52067;50.710;14.492;2024-01-06T12:20:23;23.35;;;12.13;;
65469;SDS011;52067;50.710;14.492;2024-01-06T12:22:52;24.02;;;12.65;;
65469;SDS011;52067;50.710;14.492;2024-01-06T12:25:20;25.02;;;12.25;;
65469;SDS011;52067;50.710;14.492;2024-01-06T12:27:49;24.80;;;12.60;;
65469;SDS011;52067;50.710;14.492;2024-01-06T12:30:15;24.67;;;12.48;;
65469;SDS011;52067;50.710;14.492;2024-01-06T12:32:44;25.48;;;12.18;;
65469;SDS011;52067;50.710;14.492;2024-01-06T12:35:10;27.75;;;12.82;;
65469;SDS011;52067;50.710;14.492;2024-01-06T12:37:36;25.42;;;13.23;;
65469;SDS011;52067;50.710;14.492;2024-01-06T12:40:02;23.75;;;12.70;;
65469;SDS011;52067;50.710;14.492;2024-01-06T12:42:28;27.75;;;12.90;;
65469;SDS011;52067;50.710;14.492;2024-01-06T12:44:53;24.75;;;13.45;;
65469;SDS011;52067;50.710;14.492;2024-01-06T12:47:19;26.65;;;12.57;;
65469;SDS011;52067;50.710;14.492;2024-01-06T12:49:44;25.90;;;13.25;;
65469;SDS011;52067;50.710;14.492;2024-01-06T12:52:11;23.77;;;12.23;;
65469;SDS011;52067;50.710;14.492;2024-01-06T12:54:36;24.98;;;11.90;;
65469;SDS011;52067;50.710;14.492;2024-01-06T12:57:02;25.10;;;13.27;;
65469;SDS011;52067;50.710;14.492;2024-01-06T12:59:27;22.55;;;12.05;;
65469;SDS011;52067;50.710;14.492;2024-01-06T13:01:53;21.65;;;11.63;;
65469;SDS011;52067;50.710;14.492;2024-01-06T13:04:18;23.83;;;12.38;;
65469;SDS011;52067;50.710;14.492;2024-01-06T13:06:43;20.77;;;11.07;;
65469;SDS011;52067;50.710;14.492;2024-01-06T13:09:09;25.08;;;12.40;;
65469;SDS011;52067;50.710;14.492;2024-01-06T13:11:41;24.60;;;12.70;;
65469;SDS011;52067;50.710;14.492;2024-01-06T13:14:06;27.08;;;12.85;;
65469;SDS011;52067;50.710;14.492;2024-01-06T13:16:32;24.10;;;11.80;;
65469;SDS011;52067;50.710;14.492;2024-01-06T13:18:57;26.58;;;12.43;;
65469;SDS011;52067;50.710;14.492;2024-01-06T13:21:24;22.80;;;12.10;;
65469;SDS011;52067;50.710;14.492;2024-01-06T13:23:49;24.13;;;11.75;;
65469;SDS011;52067;50.710;14.492;2024-01-06T13:26:15;22.20;;;11.82;;
65469;SDS011;52067;50.710;14.492;2024-01-06T13:28:40;23.60;;;12.18;;
65469;SDS011;52067;50.710;14.492;2024-01-06T13:31:06;22.13;;;11.70;;
65469;SDS011;52067;50.710;14.492;2024-01-06T13:33:32;22.75;;;12.60;;
65469;SDS011;52067;50.710;14.492;2024-01-06T13:35:57;23.23;;;12.90;;
65469;SDS011;52067;50.710;14.492;2024-01-06T13:38:23;29.65;;;13.82;;
65469;SDS011;52067;50.710;14.492;2024-01-06T13:40:50;28.35;;;14.55;;
65469;SDS011;52067;50.710;14.492;2024-01-06T13:43:17;33.78;;;14.48;;
65469;SDS011;52067;50.710;14.492;2024-01-06T13:45:42;32.40;;;13.77;;
65469;SDS011;52067;50.710;14.492;2024-01-06T13:48:09;33.00;;;15.02;;
65469;SDS011;52067;50.710;14.492;2024-01-06T13:50:35;31.92;;;14.50;;
65469;SDS011;52067;50.710;14.492;2024-01-06T13:53:00;37.92;;;15.70;;
65469;SDS011;52067;50.710;14.492;2024-01-06T13:55:28;48.80;;;21.38;;
65469;SDS011;52067;50.710;14.492;2024-01-06T13:57:53;71.30;;;26.70;;
65469;SDS011;52067;50.710;14.492;2024-01-06T14:00:19;78.28;;;30.25;;
65469;SDS011;52067;50.710;14.492;2024-01-06T14:02:45;47.97;;;21.08;;
65469;SDS011;52067;50.710;14.492;2024-01-06T14:05:14;58.58;;;23.75;;
65469;SDS011;52067;50.710;14.492;2024-01-06T14:07:39;60.50;;;23.40;;
65469;SDS011;52067;50.710;14.492;2024-01-06T14:10:10;66.20;;;27.13;;
65469;SDS011;52067;50.710;14.492;2024-01-06T14:12:35;56.47;;;26.35;;
65469;SDS011;52067;50.710;14.492;2024-01-06T14:15:00;65.95;;;28.30;;
65469;SDS011;52067;50.710;14.492;2024-01-06T14:17:26;74.97;;;32.17;;